Hayesville, Ohio
Current Conditions -  °F | °C
As of 6:06 PM on Wednesday 17 Dec 2014 (Local Time) from KMFD Reporting Station
Overcast Overcast  
Wind Chill: 16°   Ceiling: 1300
Heat Index: 26°   Visibility: 10mi
Dew Point: 21°   Wind: 12mph
Humidity: 81%   Direction: 260°W
Pressure: 30.12"   Gusts: 22mph
Location:  40.77°N, 82.26°W
Report Text: KMFD 172306Z 26010G19KT 10SM OVC013 M03/M06 A3012 RMK AO2 T10331061
Loading
Personal Weather Stations






























Interactive Weather Map New forecast layout! Learn more

10-Day Weather Forecast

Advertisements
Track Severe Weather on mobile